Time,TemperatureF,DewpointF,PressureIn,WindDirection,WindDirectionDegrees,WindSpeedMPH,WindSpeedGustMPH,Humidity,HourlyPrecipIn,Conditions,Clouds,dailyrainin,SolarRadiationWatts/m^2,SoftwareType,DateUTC
2013-07-18 00:00:00,73.0,57.0,-100.00,SW,215,7.4,10.7,57,0.00,,,-99.99,1.0,HOBO +U30 +Weather +,2013-07-18 06:00:00,
2013-07-18 00:05:00,73.0,57.0,-100.00,SW,218,6.3,10.1,57,0.00,,,-99.99,1.0,HOBO +U30 +Weather +,2013-07-18 06:05:00,
2013-07-18 00:15:00,72.8,56.8,-100.00,WSW,246,4.0,6.7,57,0.00,,,-99.99,1.0,HOBO +U30 +Weather +,2013-07-18 06:15:00,
2013-07-18 00:20:00,72.4,57.0,-100.00,WSW,246,5.1,7.8,58,0.00,,,-99.99,1.0,HOBO +U30 +Weather +,2013-07-18 06:20:00,
2013-07-18 00:25:00,72.4,57.0,-100.00,WSW,244,4.5,7.4,58,0.00,,,-99.99,1.0,HOBO +U30 +Weather +,2013-07-18 06:25:00,
2013-07-18 00:30:00,72.3,57.0,-100.00,WSW,246,4.5,6.7,58,0.00,,,-99.99,1.0,HOBO +U30 +Weather +,2013-07-18 06:30:00,
2013-07-18 00:35:00,72.2,57.0,-100.00,WSW,241,3.4,6.7,58,0.00,,,-99.99,1.0,HOBO +U30 +Weather +,2013-07-18 06:35:00,
2013-07-18 00:40:00,72.1,57.0,-100.00,WSW,254,1.8,6.3,58,0.00,,,-99.99,1.0,HOBO +U30 +Weather +,2013-07-18 06:40:00,
2013-07-18 00:45:00,72.1,57.1,-100.00,WSW,246,1.8,4.5,59,0.00,,,-99.99,1.0,HOBO +U30 +Weather +,2013-07-18 06:45:00,
2013-07-18 00:50:00,72.0,57.3,-100.00,SW,220,2.2,4.5,59,0.00,,,-99.99,1.0,HOBO +U30 +Weather +,2013-07-18 06:50:00,
2013-07-18 00:55:00,71.7,57.3,-100.00,SSW,213,2.9,5.1,60,0.00,,,-99.99,1.0,HOBO +U30 +Weather +,2013-07-18 06:55:00,
2013-07-18 01:00:00,71.0,57.2,-100.00,South,190,4.5,6.7,61,0.00,,,-99.99,1.0,HOBO +U30 +Weather +,2013-07-18 07:00:00,
2013-07-18 01:05:00,71.0,57.3,-100.00,SW,216,4.0,6.3,61,0.00,,,-99.99,1.0,HOBO +U30 +Weather +,2013-07-18 07:05:00,
2013-07-18 01:10:00,71.1,57.5,-100.00,SW,215,2.9,5.1,62,0.00,,,-99.99,1.0,HOBO +U30 +Weather +,2013-07-18 07:10:00,
2013-07-18 01:15:00,70.8,57.5,-100.00,SSW,204,1.8,3.4,62,0.00,,,-99.99,1.0,HOBO +U30 +Weather +,2013-07-18 07:15:00,
2013-07-18 01:20:00,70.1,57.5,-100.00,South,184,2.2,3.4,64,0.00,,,-99.99,1.0,HOBO +U30 +Weather +,2013-07-18 07:20:00,
2013-07-18 01:25:00,70.5,58.0,-100.00,SW,225,2.9,6.3,64,0.00,,,-99.99,1.0,HOBO +U30 +Weather +,2013-07-18 07:25:00,
2013-07-18 01:30:00,70.4,58.0,-100.00,WSW,237,2.9,6.7,64,0.00,,,-99.99,1.0,HOBO +U30 +Weather +,2013-07-18 07:30:00,
2013-07-18 01:35:00,70.0,58.1,-100.00,SW,223,2.2,5.6,65,0.00,,,-99.99,1.0,HOBO +U30 +Weather +,2013-07-18 07:35:00,
2013-07-18 01:40:00,69.9,58.6,-100.00,WSW,237,2.9,6.3,67,0.00,,,-99.99,1.0,HOBO +U30 +Weather +,2013-07-18 07:40:00,
2013-07-18 01:45:00,69.6,58.7,-100.00,SW,234,2.2,7.4,68,0.00,,,-99.99,1.0,HOBO +U30 +Weather +,2013-07-18 07:45:00,
2013-07-18 01:50:00,69.4,58.7,-100.00,SW,220,4.5,8.5,68,0.00,,,-99.99,1.0,HOBO +U30 +Weather +,2013-07-18 07:50:00,
2013-07-18 01:55:00,69.3,58.9,-100.00,SW,232,2.2,5.1,69,0.00,,,-99.99,1.0,HOBO +U30 +Weather +,2013-07-18 07:55:00,
2013-07-18 02:00:00,69.1,58.9,-100.00,SW,229,0.7,4.0,69,0.00,,,-99.99,1.0,HOBO +U30 +Weather +,2013-07-18 08:00:00,
2013-07-18 02:13:00,68.4,58.6,-100.00,South,183,1.1,2.9,71,0.00,,,-99.99,1.0,HOBO +U30 +Weather +,2013-07-18 08:13:00,
2013-07-18 02:15:00,67.6,58.3,-100.00,SW,234,0.0,1.1,71,0.00,,,-99.99,1.0,HOBO +U30 +Weather +,2013-07-18 08:15:00,
2013-07-18 02:20:00,67.6,58.7,-100.00,WSW,247,0.7,4.0,73,0.00,,,-99.99,1.0,HOBO +U30 +Weather +,2013-07-18 08:20:00,
2013-07-18 02:25:00,67.7,59.1,-100.00,West,268,2.2,4.5,73,0.00,,,-99.99,1.0,HOBO +U30 +Weather +,2013-07-18 08:25:00,
2013-07-18 02:30:00,68.1,59.4,-100.00,WSW,243,4.5,6.3,73,0.00,,,-99.99,1.0,HOBO +U30 +Weather +,2013-07-18 08:30:00,
2013-07-18 02:35:00,68.6,59.2,-100.00,SW,234,4.0,6.7,71,0.00,,,-99.99,1.0,HOBO +U30 +Weather +,2013-07-18 08:35:00,
2013-07-18 02:40:00,68.8,58.9,-100.00,WSW,257,4.0,8.5,70,0.00,,,-99.99,1.0,HOBO +U30 +Weather +,2013-07-18 08:40:00,
2013-07-18 02:45:00,69.1,59.0,-100.00,WSW,244,4.5,7.8,70,0.00,,,-99.99,1.0,HOBO +U30 +Weather +,2013-07-18 08:45:00,
2013-07-18 02:50:00,68.9,59.0,-100.00,WSW,251,5.1,7.8,70,0.00,,,-99.99,1.0,HOBO +U30 +Weather +,2013-07-18 08:50:00,
2013-07-18 02:55:00,68.9,59.1,-100.00,WSW,239,6.3,8.9,71,0.00,,,-99.99,1.0,HOBO +U30 +Weather +,2013-07-18 08:55:00,
2013-07-18 03:00:00,68.6,59.0,-100.00,SW,226,3.4,7.4,71,0.00,,,-99.99,1.0,HOBO +U30 +Weather +,2013-07-18 09:00:00,
2013-07-18 03:05:00,68.2,58.9,-100.00,South,191,1.1,5.1,72,0.00,,,-99.99,1.0,HOBO +U30 +Weather +,2013-07-18 09:05:00,
2013-07-18 03:10:00,67.6,58.9,-100.00,South,191,3.4,6.7,73,0.00,,,-99.99,1.0,HOBO +U30 +Weather +,2013-07-18 09:10:00,
2013-07-18 03:15:00,66.3,58.8,-100.00,South,177,3.4,5.6,76,0.00,,,-99.99,1.0,HOBO +U30 +Weather +,2013-07-18 09:15:00,
2013-07-18 03:20:00,66.8,58.9,-100.00,SSW,209,2.2,6.3,75,0.00,,,-99.99,1.0,HOBO +U30 +Weather +,2013-07-18 09:20:00,
2013-07-18 03:25:00,67.3,58.6,-100.00,SW,225,2.9,5.6,73,0.00,,,-99.99,1.0,HOBO +U30 +Weather +,2013-07-18 09:25:00,
2013-07-18 03:30:00,67.3,58.5,-100.00,WSW,243,2.9,6.3,73,0.00,,,-99.99,1.0,HOBO +U30 +Weather +,2013-07-18 09:30:00,
2013-07-18 03:35:00,66.7,58.6,-100.00,SSW,209,4.5,7.4,75,0.00,,,-99.99,1.0,HOBO +U30 +Weather +,2013-07-18 09:35:00,
2013-07-18 03:40:00,65.8,58.8,-100.00,South,183,5.1,8.5,78,0.00,,,-99.99,1.0,HOBO +U30 +Weather +,2013-07-18 09:40:00,
2013-07-18 03:45:00,65.8,58.8,-100.00,SSW,204,3.4,5.6,78,0.00,,,-99.99,1.0,HOBO +U30 +Weather +,2013-07-18 09:45:00,
2013-07-18 03:50:00,65.7,58.7,-100.00,SSW,197,3.4,5.1,78,0.00,,,-99.99,1.0,HOBO +U30 +Weather +,2013-07-18 09:50:00,
2013-07-18 03:55:00,65.4,58.7,-100.00,South,185,4.0,6.3,78,0.00,,,-99.99,1.0,HOBO +U30 +Weather +,2013-07-18 09:55:00,
2013-07-18 04:00:00,64.8,58.8,-100.00,South,177,4.0,6.3,80,0.00,,,-99.99,1.0,HOBO +U30 +Weather +,2013-07-18 10:00:00,
2013-07-18 04:10:00,64.8,58.5,-100.00,SSW,202,1.1,4.5,80,0.00,,,-99.99,1.0,HOBO +U30 +Weather +,2013-07-18 10:10:00,
2013-07-18 04:11:00,64.7,58.8,-100.00,SSW,194,2.2,5.1,81,0.00,,,-99.99,1.0,HOBO +U30 +Weather +,2013-07-18 10:11:00,
2013-07-18 04:15:00,65.2,58.1,-100.00,West,260,3.4,5.6,77,0.00,,,-99.99,1.0,HOBO +U30 +Weather +,2013-07-18 10:15:00,
2013-07-18 04:20:00,65.2,58.0,-100.00,WSW,253,2.9,5.1,77,0.00,,,-99.99,1.0,HOBO +U30 +Weather +,2013-07-18 10:20:00,
2013-07-18 04:25:00,64.9,58.0,-100.00,West,260,1.8,4.5,78,0.00,,,-99.99,1.0,HOBO +U30 +Weather +,2013-07-18 10:25:00,
2013-07-18 04:30:00,64.9,58.1,-100.00,WSW,250,2.9,6.3,78,0.00,,,-99.99,1.0,HOBO +U30 +Weather +,2013-07-18 10:30:00,
2013-07-18 04:35:00,64.7,58.0,-100.00,West,260,4.5,6.7,78,0.00,,,-99.99,1.0,HOBO +U30 +Weather +,2013-07-18 10:35:00,
2013-07-18 04:40:00,64.8,57.9,-100.00,SW,232,4.5,6.7,78,0.00,,,-99.99,1.0,HOBO +U30 +Weather +,2013-07-18 10:40:00,
2013-07-18 04:45:00,64.7,57.8,-100.00,WSW,244,4.5,7.8,78,0.00,,,-99.99,1.0,HOBO +U30 +Weather +,2013-07-18 10:45:00,
2013-07-18 04:50:00,64.7,57.7,-100.00,WSW,240,2.2,5.1,77,0.00,,,-99.99,1.0,HOBO +U30 +Weather +,2013-07-18 10:50:00,
2013-07-18 04:55:00,64.6,57.6,-100.00,SW,225,1.8,3.4,77,0.00,,,-99.99,1.0,HOBO +U30 +Weather +,2013-07-18 10:55:00,
2013-07-18 05:00:00,64.5,57.4,-100.00,SSW,209,4.0,6.7,77,0.00,,,-99.99,1.0,HOBO +U30 +Weather +,2013-07-18 11:00:00,
2013-07-18 05:05:00,64.2,57.3,-100.00,SSW,202,5.1,7.4,78,0.00,,,-99.99,1.0,HOBO +U30 +Weather +,2013-07-18 11:05:00,
2013-07-18 05:10:00,64.1,57.1,-100.00,SSW,206,4.5,7.4,78,0.00,,,-99.99,1.0,HOBO +U30 +Weather +,2013-07-18 11:10:00,
2013-07-18 05:15:00,64.0,57.3,-100.00,SSW,202,3.4,7.4,78,0.00,,,-99.99,1.0,HOBO +U30 +Weather +,2013-07-18 11:15:00,
2013-07-18 05:20:00,63.2,56.8,-100.00,South,174,5.1,7.4,79,0.00,,,-99.99,1.0,HOBO +U30 +Weather +,2013-07-18 11:20:00,
2013-07-18 05:25:00,62.7,56.6,-100.00,South,178,4.5,6.7,80,0.00,,,-99.99,1.0,HOBO +U30 +Weather +,2013-07-18 11:25:00,
2013-07-18 05:30:00,62.5,56.5,-100.00,SSW,197,4.5,7.8,80,0.00,,,-99.99,1.0,HOBO +U30 +Weather +,2013-07-18 11:30:00,
2013-07-18 05:35:00,62.8,56.6,-100.00,SW,220,4.5,6.7,80,0.00,,,-99.99,2.0,HOBO +U30 +Weather +,2013-07-18 11:35:00,
2013-07-18 05:40:00,63.1,56.5,-100.00,SW,215,5.6,10.1,78,0.00,,,-99.99,4.0,HOBO +U30 +Weather +,2013-07-18 11:40:00,
2013-07-18 05:45:00,63.4,56.5,-100.00,SW,222,4.5,8.9,78,0.00,,,-99.99,6.0,HOBO +U30 +Weather +,2013-07-18 11:45:00,
2013-07-18 05:50:00,63.4,56.5,-100.00,WSW,247,4.5,7.8,78,0.00,,,-99.99,12.0,HOBO +U30 +Weather +,2013-07-18 11:50:00,
2013-07-18 05:55:00,63.6,56.6,-100.00,SW,220,2.9,6.3,77,0.00,,,-99.99,18.0,HOBO +U30 +Weather +,2013-07-18 11:55:00,
2013-07-18 06:08:00,63.6,56.7,-100.00,SW,233,4.0,6.7,78,0.00,,,-99.99,24.0,HOBO +U30 +Weather +,2013-07-18 12:08:00,
2013-07-18 06:10:00,63.4,56.7,-100.00,SW,232,3.4,6.7,78,0.00,,,-99.99,41.0,HOBO +U30 +Weather +,2013-07-18 12:10:00,
2013-07-18 06:15:00,63.5,56.6,-100.00,WSW,247,2.9,5.6,78,0.00,,,-99.99,51.0,HOBO +U30 +Weather +,2013-07-18 12:15:00,
2013-07-18 06:20:00,63.4,56.7,-100.00,South,191,3.4,6.3,78,0.00,,,-99.99,61.0,HOBO +U30 +Weather +,2013-07-18 12:20:00,
2013-07-18 06:25:00,63.1,56.4,-100.00,SSE,154,4.0,7.4,78,0.00,,,-99.99,73.0,HOBO +U30 +Weather +,2013-07-18 12:25:00,
2013-07-18 06:30:00,63.3,56.4,-100.00,South,173,4.0,6.3,78,0.00,,,-99.99,86.0,HOBO +U30 +Weather +,2013-07-18 12:30:00,
2013-07-18 06:35:00,63.8,56.7,-100.00,SSW,204,4.0,5.6,77,0.00,,,-99.99,101.0,HOBO +U30 +Weather +,2013-07-18 12:35:00,
2013-07-18 06:40:00,64.4,56.9,-100.00,SSW,212,4.0,6.7,76,0.00,,,-99.99,112.0,HOBO +U30 +Weather +,2013-07-18 12:40:00,
2013-07-18 06:45:00,64.6,56.9,-100.00,SSW,205,3.4,5.6,75,0.00,,,-99.99,121.0,HOBO +U30 +Weather +,2013-07-18 12:45:00,
2013-07-18 06:50:00,65.1,57.1,-100.00,SSW,198,3.4,5.1,75,0.00,,,-99.99,88.0,HOBO +U30 +Weather +,2013-07-18 12:50:00,
2013-07-18 06:55:00,65.8,57.0,-100.00,SSW,206,4.0,7.4,73,0.00,,,-99.99,39.0,HOBO +U30 +Weather +,2013-07-18 12:55:00,
2013-07-18 07:07:00,66.0,57.1,-100.00,SSW,213,4.5,7.4,72,0.00,,,-99.99,142.0,HOBO +U30 +Weather +,2013-07-18 13:07:00,
2013-07-18 07:10:00,66.4,57.1,-100.00,SSW,213,5.6,8.5,71,0.00,,,-99.99,169.0,HOBO +U30 +Weather +,2013-07-18 13:10:00,
2013-07-18 07:15:00,66.9,57.2,-100.00,SW,215,5.1,8.5,70,0.00,,,-99.99,182.0,HOBO +U30 +Weather +,2013-07-18 13:15:00,
2013-07-18 07:20:00,67.2,57.1,-100.00,SW,215,5.6,11.2,70,0.00,,,-99.99,192.0,HOBO +U30 +Weather +,2013-07-18 13:20:00,
2013-07-18 07:25:00,67.5,57.3,-100.00,SW,215,6.3,9.6,69,0.00,,,-99.99,203.0,HOBO +U30 +Weather +,2013-07-18 13:25:00,
2013-07-18 07:30:00,67.7,57.3,-100.00,SW,227,6.3,8.9,69,0.00,,,-99.99,216.0,HOBO +U30 +Weather +,2013-07-18 13:30:00,
2013-07-18 07:35:00,68.2,57.5,-100.00,SW,227,5.6,11.9,68,0.00,,,-99.99,231.0,HOBO +U30 +Weather +,2013-07-18 13:35:00,
2013-07-18 07:40:00,68.4,57.3,-100.00,SW,222,5.1,8.9,67,0.00,,,-99.99,242.0,HOBO +U30 +Weather +,2013-07-18 13:40:00,
2013-07-18 07:45:00,68.8,57.5,-100.00,SW,233,4.5,7.4,67,0.00,,,-99.99,254.0,HOBO +U30 +Weather +,2013-07-18 13:45:00,
2013-07-18 07:50:00,68.8,57.4,-100.00,SW,234,6.7,11.2,66,0.00,,,-99.99,268.0,HOBO +U30 +Weather +,2013-07-18 13:50:00,
2013-07-18 07:55:00,68.7,57.3,-100.00,WSW,240,7.4,12.3,66,0.00,,,-99.99,278.0,HOBO +U30 +Weather +,2013-07-18 13:55:00,
2013-07-18 08:05:00,69.7,57.5,-100.00,WSW,241,5.6,10.1,65,0.00,,,-99.99,304.0,HOBO +U30 +Weather +,2013-07-18 14:05:00,
2013-07-18 08:07:00,69.6,57.6,-100.00,WSW,237,5.1,8.9,65,0.00,,,-99.99,293.0,HOBO +U30 +Weather +,2013-07-18 14:07:00,
2013-07-18 08:10:00,70.1,57.5,-100.00,SW,234,5.6,9.6,64,0.00,,,-99.99,316.0,HOBO +U30 +Weather +,2013-07-18 14:10:00,
2013-07-18 08:15:00,70.3,57.3,-100.00,SW,232,5.6,9.6,63,0.00,,,-99.99,331.0,HOBO +U30 +Weather +,2013-07-18 14:15:00,
2013-07-18 08:20:00,70.6,57.8,-100.00,SW,230,5.6,11.2,63,0.00,,,-99.99,346.0,HOBO +U30 +Weather +,2013-07-18 14:20:00,
2013-07-18 08:25:00,70.7,57.8,-100.00,WSW,247,4.0,8.9,63,0.00,,,-99.99,358.0,HOBO +U30 +Weather +,2013-07-18 14:25:00,
2013-07-18 08:30:00,71.2,57.7,-100.00,SW,218,4.5,8.9,62,0.00,,,-99.99,371.0,HOBO +U30 +Weather +,2013-07-18 14:30:00,
2013-07-18 08:35:00,72.1,58.3,-100.00,SSW,206,3.4,6.3,61,0.00,,,-99.99,383.0,HOBO +U30 +Weather +,2013-07-18 14:35:00,
2013-07-18 08:40:00,71.4,57.8,-100.00,WSW,256,4.5,7.8,62,0.00,,,-99.99,396.0,HOBO +U30 +Weather +,2013-07-18 14:40:00,
2013-07-18 08:45:00,71.6,57.7,-100.00,WSW,237,5.1,8.9,61,0.00,,,-99.99,409.0,HOBO +U30 +Weather +,2013-07-18 14:45:00,
2013-07-18 08:50:00,72.3,58.1,-100.00,SW,229,4.5,7.4,61,0.00,,,-99.99,422.0,HOBO +U30 +Weather +,2013-07-18 14:50:00,
2013-07-18 09:04:00,72.8,58.0,-100.00,SW,236,4.5,7.4,59,0.00,,,-99.99,436.0,HOBO +U30 +Weather +,2013-07-18 15:04:00,
2013-07-18 09:05:00,73.6,57.9,-100.00,WSW,246,4.5,6.7,58,0.00,,,-99.99,458.0,HOBO +U30 +Weather +,2013-07-18 15:05:00,
2013-07-18 09:10:00,73.6,58.1,-100.00,WSW,240,4.5,6.7,58,0.00,,,-99.99,472.0,HOBO +U30 +Weather +,2013-07-18 15:10:00,
2013-07-18 09:15:00,74.3,58.2,-100.00,SW,232,4.5,8.5,57,0.00,,,-99.99,487.0,HOBO +U30 +Weather +,2013-07-18 15:15:00,
2013-07-18 09:20:00,74.9,58.4,-100.00,WSW,248,4.5,6.7,56,0.00,,,-99.99,504.0,HOBO +U30 +Weather +,2013-07-18 15:20:00,
2013-07-18 09:25:00,74.2,58.4,-100.00,WSW,237,4.5,7.8,57,0.00,,,-99.99,519.0,HOBO +U30 +Weather +,2013-07-18 15:25:00,
2013-07-18 09:30:00,75.8,58.8,-100.00,SW,218,4.5,7.4,55,0.00,,,-99.99,532.0,HOBO +U30 +Weather +,2013-07-18 15:30:00,
2013-07-18 09:35:00,75.9,58.6,-100.00,SSW,204,4.0,7.8,54,0.00,,,-99.99,548.0,HOBO +U30 +Weather +,2013-07-18 15:35:00,
2013-07-18 09:40:00,76.8,58.6,-100.00,SSW,211,2.9,5.6,53,0.00,,,-99.99,554.0,HOBO +U30 +Weather +,2013-07-18 15:40:00,
2013-07-18 09:45:00,77.1,58.4,-100.00,SSW,209,2.9,5.6,52,0.00,,,-99.99,558.0,HOBO +U30 +Weather +,2013-07-18 15:45:00,
2013-07-18 09:50:00,78.0,58.6,-100.00,South,178,2.2,6.3,51,0.00,,,-99.99,569.0,HOBO +U30 +Weather +,2013-07-18 15:50:00,
2013-07-18 10:03:00,78.3,58.5,-100.00,SW,227,3.4,6.7,50,0.00,,,-99.99,579.0,HOBO +U30 +Weather +,2013-07-18 16:03:00,
2013-07-18 10:05:00,79.3,58.6,-100.00,SW,218,3.4,6.7,49,0.00,,,-99.99,598.0,HOBO +U30 +Weather +,2013-07-18 16:05:00,
2013-07-18 10:10:00,78.0,57.5,-100.00,SW,227,5.1,9.6,49,0.00,,,-99.99,616.0,HOBO +U30 +Weather +,2013-07-18 16:10:00,
2013-07-18 10:15:00,78.9,58.8,-100.00,SSW,195,5.1,8.9,50,0.00,,,-99.99,621.0,HOBO +U30 +Weather +,2013-07-18 16:15:00,
2013-07-18 10:20:00,80.1,57.8,-100.00,SSW,209,4.5,8.9,46,0.00,,,-99.99,634.0,HOBO +U30 +Weather +,2013-07-18 16:20:00,
2013-07-18 10:25:00,81.2,59.3,-100.00,SSW,204,3.4,7.4,47,0.00,,,-99.99,639.0,HOBO +U30 +Weather +,2013-07-18 16:25:00,
2013-07-18 10:30:00,80.4,59.3,-100.00,South,187,5.6,8.5,48,0.00,,,-99.99,649.0,HOBO +U30 +Weather +,2013-07-18 16:30:00,
2013-07-18 10:35:00,81.2,59.8,-100.00,South,178,4.5,7.4,48,0.00,,,-99.99,658.0,HOBO +U30 +Weather +,2013-07-18 16:35:00,
2013-07-18 10:40:00,80.5,59.5,-100.00,SSE,161,5.6,9.6,48,0.00,,,-99.99,667.0,HOBO +U30 +Weather +,2013-07-18 16:40:00,
2013-07-18 10:45:00,81.2,59.7,-100.00,SSE,163,6.7,10.1,48,0.00,,,-99.99,678.0,HOBO +U30 +Weather +,2013-07-18 16:45:00,
2013-07-18 10:50:00,81.8,59.2,-100.00,SSE,168,5.6,8.5,46,0.00,,,-99.99,688.0,HOBO +U30 +Weather +,2013-07-18 16:50:00,
2013-07-18 11:01:00,82.4,59.1,-100.00,SSE,152,6.7,9.6,45,0.00,,,-99.99,697.0,HOBO +U30 +Weather +,2013-07-18 17:01:00,
2013-07-18 11:05:00,83.1,57.8,-100.00,SSE,161,5.1,9.6,42,0.00,,,-99.99,712.0,HOBO +U30 +Weather +,2013-07-18 17:05:00,
2013-07-18 11:10:00,84.5,58.4,-100.00,SSE,159,4.5,7.8,41,0.00,,,-99.99,723.0,HOBO +U30 +Weather +,2013-07-18 17:10:00,
2013-07-18 11:15:00,83.7,57.8,-100.00,SSE,160,5.6,8.9,41,0.00,,,-99.99,732.0,HOBO +U30 +Weather +,2013-07-18 17:15:00,
2013-07-18 11:20:00,85.5,56.7,-100.00,SSE,167,3.4,8.9,37,0.00,,,-99.99,734.0,HOBO +U30 +Weather +,2013-07-18 17:20:00,
2013-07-18 11:25:00,86.7,56.9,-100.00,SE,128,2.9,5.1,36,0.00,,,-99.99,746.0,HOBO +U30 +Weather +,2013-07-18 17:25:00,
2013-07-18 11:30:00,89.2,54.4,-100.00,ESE,108,1.1,5.1,30,0.00,,,-99.99,754.0,HOBO +U30 +Weather +,2013-07-18 17:30:00,
2013-07-18 11:35:00,89.6,47.0,-100.00,NW,326,1.8,5.6,23,0.00,,,-99.99,764.0,HOBO +U30 +Weather +,2013-07-18 17:35:00,
2013-07-18 11:40:00,88.1,45.0,-100.00,NW,316,4.0,13.0,22,0.00,,,-99.99,424.0,HOBO +U30 +Weather +,2013-07-18 17:40:00,
2013-07-18 11:45:00,89.8,45.3,-100.00,NNW,341,3.4,6.7,21,0.00,,,-99.99,784.0,HOBO +U30 +Weather +,2013-07-18 17:45:00,
2013-07-18 11:50:00,87.3,42.0,-100.00,NW,317,5.6,14.1,20,0.00,,,-99.99,791.0,HOBO +U30 +Weather +,2013-07-18 17:50:00,
2013-07-18 12:00:00,89.6,44.9,-100.00,NW,323,4.0,7.8,21,0.00,,,-99.99,841.0,HOBO +U30 +Weather +,2013-07-18 18:00:00,
2013-07-18 12:05:00,88.7,43.2,-100.00,WNW,296,6.3,14.5,20,0.00,,,-99.99,817.0,HOBO +U30 +Weather +,2013-07-18 18:05:00,
2013-07-18 12:10:00,88.9,43.7,-100.00,WNW,292,5.1,13.0,20,0.00,,,-99.99,789.0,HOBO +U30 +Weather +,2013-07-18 18:10:00,
2013-07-18 12:15:00,88.5,43.6,-100.00,NNW,345,9.6,15.2,21,0.00,,,-99.99,818.0,HOBO +U30 +Weather +,2013-07-18 18:15:00,
2013-07-18 12:20:00,89.0,44.3,-100.00,NW,321,5.1,10.1,21,0.00,,,-99.99,812.0,HOBO +U30 +Weather +,2013-07-18 18:20:00,
2013-07-18 12:25:00,89.3,44.1,-100.00,NNW,337,3.4,6.3,20,0.00,,,-99.99,823.0,HOBO +U30 +Weather +,2013-07-18 18:25:00,
2013-07-18 12:30:00,88.7,44.9,-100.00,West,279,5.6,14.1,21,0.00,,,-99.99,831.0,HOBO +U30 +Weather +,2013-07-18 18:30:00,
2013-07-18 12:35:00,87.6,46.7,-100.00,NNW,336,8.5,14.5,24,0.00,,,-99.99,532.0,HOBO +U30 +Weather +,2013-07-18 18:35:00,
2013-07-18 12:40:00,88.6,42.1,-100.00,NNW,343,7.8,14.5,19,0.00,,,-99.99,829.0,HOBO +U30 +Weather +,2013-07-18 18:40:00,
2013-07-18 12:45:00,88.6,42.7,-100.00,North,351,7.4,11.2,20,0.00,,,-99.99,839.0,HOBO +U30 +Weather +,2013-07-18 18:45:00,
2013-07-18 12:58:00,87.7,44.5,-100.00,NNW,341,8.9,14.5,22,0.00,,,-99.99,841.0,HOBO +U30 +Weather +,2013-07-18 18:58:00,
2013-07-18 13:00:00,88.1,43.4,-100.00,NW,323,6.7,15.2,21,0.00,,,-99.99,576.0,HOBO +U30 +Weather +,2013-07-18 19:00:00,
2013-07-18 13:05:00,88.4,42.3,-100.00,NW,326,7.8,13.0,20,0.00,,,-99.99,883.0,HOBO +U30 +Weather +,2013-07-18 19:05:00,
2013-07-18 13:10:00,90.5,44.0,-100.00,WSW,254,3.4,7.8,20,0.00,,,-99.99,199.0,HOBO +U30 +Weather +,2013-07-18 19:10:00,
2013-07-18 13:15:00,89.3,39.7,-100.00,WNW,288,7.4,18.1,17,0.00,,,-99.99,936.0,HOBO +U30 +Weather +,2013-07-18 19:15:00,
2013-07-18 13:20:00,90.8,41.5,-100.00,WNW,293,6.3,19.2,18,0.00,,,-99.99,864.0,HOBO +U30 +Weather +,2013-07-18 19:20:00,
2013-07-18 13:25:00,91.0,40.5,-100.00,West,279,2.9,6.3,17,0.00,,,-99.99,907.0,HOBO +U30 +Weather +,2013-07-18 19:25:00,
2013-07-18 13:30:00,91.0,38.3,-100.00,WNW,282,5.1,12.3,15,0.00,,,-99.99,884.0,HOBO +U30 +Weather +,2013-07-18 19:30:00,
2013-07-18 13:35:00,89.7,37.1,-100.00,NW,307,7.8,13.4,15,0.00,,,-99.99,938.0,HOBO +U30 +Weather +,2013-07-18 19:35:00,
2013-07-18 13:40:00,90.2,39.4,-100.00,NW,320,5.6,10.1,16,0.00,,,-99.99,879.0,HOBO +U30 +Weather +,2013-07-18 19:40:00,
2013-07-18 13:45:00,91.9,41.6,-100.00,NNW,334,6.3,11.9,17,0.00,,,-99.99,876.0,HOBO +U30 +Weather +,2013-07-18 19:45:00,
2013-07-18 13:57:00,91.5,37.9,-100.00,NNW,329,6.7,12.3,15,0.00,,,-99.99,859.0,HOBO +U30 +Weather +,2013-07-18 19:57:00,
2013-07-18 14:00:00,90.8,37.3,-100.00,WNW,286,7.8,14.1,15,0.00,,,-99.99,851.0,HOBO +U30 +Weather +,2013-07-18 20:00:00,
2013-07-18 14:05:00,90.6,37.0,-100.00,NNW,329,10.7,20.4,15,0.00,,,-99.99,848.0,HOBO +U30 +Weather +,2013-07-18 20:05:00,
2013-07-18 14:10:00,90.7,40.4,-100.00,NW,305,6.7,14.1,17,0.00,,,-99.99,838.0,HOBO +U30 +Weather +,2013-07-18 20:10:00,
2013-07-18 14:15:00,91.4,37.6,-100.00,NW,310,7.4,17.0,15,0.00,,,-99.99,832.0,HOBO +U30 +Weather +,2013-07-18 20:15:00,
2013-07-18 14:20:00,90.3,39.0,-100.00,NNW,336,10.1,17.4,16,0.00,,,-99.99,829.0,HOBO +U30 +Weather +,2013-07-18 20:20:00,
2013-07-18 14:25:00,90.3,41.4,-100.00,NNW,327,8.9,17.4,18,0.00,,,-99.99,831.0,HOBO +U30 +Weather +,2013-07-18 20:25:00,
2013-07-18 14:30:00,91.2,36.3,-100.00,North,7,7.8,16.3,14,0.00,,,-99.99,821.0,HOBO +U30 +Weather +,2013-07-18 20:30:00,
2013-07-18 14:35:00,91.8,36.2,-100.00,North,7,8.5,14.5,14,0.00,,,-99.99,824.0,HOBO +U30 +Weather +,2013-07-18 20:35:00,
2013-07-18 14:40:00,91.6,36.9,-100.00,NNE,32,8.9,13.0,14,0.00,,,-99.99,821.0,HOBO +U30 +Weather +,2013-07-18 20:40:00,
2013-07-18 14:45:00,92.1,39.3,-100.00,North,355,8.5,14.1,15,0.00,,,-99.99,841.0,HOBO +U30 +Weather +,2013-07-18 20:45:00,
2013-07-18 14:55:00,92.3,42.6,-100.00,NW,312,5.6,12.3,17,0.00,,,-99.99,861.0,HOBO +U30 +Weather +,2013-07-18 20:55:00,
2013-07-18 15:00:00,92.3,40.6,-100.00,NW,326,10.1,19.2,16,0.00,,,-99.99,521.0,HOBO +U30 +Weather +,2013-07-18 21:00:00,
2013-07-18 15:05:00,91.0,41.5,-100.00,NNW,327,10.1,19.2,17,0.00,,,-99.99,861.0,HOBO +U30 +Weather +,2013-07-18 21:05:00,
2013-07-18 15:10:00,91.8,39.9,-100.00,NNW,333,7.8,14.1,16,0.00,,,-99.99,747.0,HOBO +U30 +Weather +,2013-07-18 21:10:00,
2013-07-18 15:15:00,91.4,40.9,-100.00,NW,316,4.5,10.7,17,0.00,,,-99.99,686.0,HOBO +U30 +Weather +,2013-07-18 21:15:00,
2013-07-18 15:20:00,93.1,39.0,-100.00,NE,55,2.9,7.4,15,0.00,,,-99.99,766.0,HOBO +U30 +Weather +,2013-07-18 21:20:00,
2013-07-18 15:25:00,95.1,38.8,-100.00,NNE,28,2.9,5.6,14,0.00,,,-99.99,753.0,HOBO +U30 +Weather +,2013-07-18 21:25:00,
2013-07-18 15:30:00,92.2,38.9,-100.00,West,279,9.6,20.4,15,0.00,,,-99.99,741.0,HOBO +U30 +Weather +,2013-07-18 21:30:00,
2013-07-18 15:35:00,92.6,42.4,-100.00,WSW,243,10.1,20.8,17,0.00,,,-99.99,724.0,HOBO +U30 +Weather +,2013-07-18 21:35:00,
2013-07-18 15:40:00,93.1,42.6,-100.00,NNW,330,6.7,13.0,17,0.00,,,-99.99,726.0,HOBO +U30 +Weather +,2013-07-18 21:40:00,
2013-07-18 15:54:00,91.8,41.1,-100.00,NW,320,11.2,18.6,17,0.00,,,-99.99,711.0,HOBO +U30 +Weather +,2013-07-18 21:54:00,
2013-07-18 15:55:00,93.0,36.8,-100.00,NNW,337,8.5,16.3,14,0.00,,,-99.99,688.0,HOBO +U30 +Weather +,2013-07-18 21:55:00,
2013-07-18 16:00:00,93.8,37.2,-100.00,NW,310,5.6,13.0,13,0.00,,,-99.99,683.0,HOBO +U30 +Weather +,2013-07-18 22:00:00,
2013-07-18 16:05:00,91.8,38.3,-100.00,NNW,330,10.7,23.0,15,0.00,,,-99.99,684.0,HOBO +U30 +Weather +,2013-07-18 22:05:00,
2013-07-18 16:10:00,90.8,39.9,-100.00,NNW,334,15.2,22.6,16,0.00,,,-99.99,676.0,HOBO +U30 +Weather +,2013-07-18 22:10:00,
2013-07-18 16:15:00,92.0,40.3,-100.00,NW,313,9.6,15.9,16,0.00,,,-99.99,661.0,HOBO +U30 +Weather +,2013-07-18 22:15:00,
2013-07-18 16:20:00,92.3,37.2,-100.00,North,0,9.6,15.9,14,0.00,,,-99.99,656.0,HOBO +U30 +Weather +,2013-07-18 22:20:00,
2013-07-18 16:25:00,92.9,40.1,-100.00,North,0,7.8,13.0,16,0.00,,,-99.99,639.0,HOBO +U30 +Weather +,2013-07-18 22:25:00,
2013-07-18 16:30:00,92.8,41.6,-100.00,NW,323,5.6,16.3,17,0.00,,,-99.99,448.0,HOBO +U30 +Weather +,2013-07-18 22:30:00,
2013-07-18 16:35:00,91.5,39.0,-100.00,NW,313,5.6,8.9,16,0.00,,,-99.99,639.0,HOBO +U30 +Weather +,2013-07-18 22:35:00,
2013-07-18 16:40:00,93.4,42.4,-100.00,North,3,5.1,8.9,17,0.00,,,-99.99,613.0,HOBO +U30 +Weather +,2013-07-18 22:40:00,
2013-07-18 16:52:00,93.6,38.5,-100.00,North,8,4.5,8.5,14,0.00,,,-99.99,213.0,HOBO +U30 +Weather +,2013-07-18 22:52:00,
2013-07-18 16:55:00,91.4,41.1,-100.00,NNW,334,7.8,14.1,17,0.00,,,-99.99,662.0,HOBO +U30 +Weather +,2013-07-18 22:55:00,
2013-07-18 17:00:00,91.5,37.7,-100.00,NNW,341,6.3,12.3,15,0.00,,,-99.99,624.0,HOBO +U30 +Weather +,2013-07-18 23:00:00,
2013-07-18 17:05:00,92.4,38.1,-100.00,North,8,10.1,17.4,15,0.00,,,-99.99,563.0,HOBO +U30 +Weather +,2013-07-18 23:05:00,
2013-07-18 17:10:00,93.2,35.7,-100.00,North,355,7.4,14.1,13,0.00,,,-99.99,549.0,HOBO +U30 +Weather +,2013-07-18 23:10:00,
2013-07-18 17:15:00,91.9,38.0,-100.00,NW,316,9.6,17.0,15,0.00,,,-99.99,538.0,HOBO +U30 +Weather +,2013-07-18 23:15:00,
2013-07-18 17:20:00,91.4,37.1,-100.00,NNW,336,10.7,18.1,14,0.00,,,-99.99,521.0,HOBO +U30 +Weather +,2013-07-18 23:20:00,
2013-07-18 17:25:00,92.0,30.5,-100.00,NNW,347,11.9,20.4,11,0.00,,,-99.99,507.0,HOBO +U30 +Weather +,2013-07-18 23:25:00,
2013-07-18 17:30:00,92.7,27.2,-100.00,North,3,12.3,18.1,9,0.00,,,-99.99,496.0,HOBO +U30 +Weather +,2013-07-18 23:30:00,
2013-07-18 17:35:00,93.5,27.3,-100.00,North,8,9.6,14.1,9,0.00,,,-99.99,487.0,HOBO +U30 +Weather +,2013-07-18 23:35:00,
2013-07-18 17:40:00,93.3,25.3,-100.00,NNE,20,14.1,19.7,8,0.00,,,-99.99,476.0,HOBO +U30 +Weather +,2013-07-18 23:40:00,
2013-07-18 17:50:00,92.4,28.0,-100.00,North,355,12.3,22.6,10,0.00,,,-99.99,461.0,HOBO +U30 +Weather +,2013-07-18 23:50:00,
2013-07-18 17:55:00,92.1,28.0,-100.00,NNW,337,9.6,19.2,10,0.00,,,-99.99,436.0,HOBO +U30 +Weather +,2013-07-18 23:55:00,
2013-07-18 18:00:00,92.0,33.7,-100.00,NNW,340,9.6,18.6,12,0.00,,,-99.99,423.0,HOBO +U30 +Weather +,2013-07-19 00:00:00,
2013-07-18 18:05:00,92.5,26.8,-100.00,North,352,11.9,18.1,9,0.00,,,-99.99,409.0,HOBO +U30 +Weather +,2013-07-19 00:05:00,
2013-07-18 18:10:00,92.3,34.6,-100.00,North,354,10.7,18.6,13,0.00,,,-99.99,388.0,HOBO +U30 +Weather +,2013-07-19 00:10:00,
2013-07-18 18:15:00,91.9,34.3,-100.00,NW,314,6.7,11.9,13,0.00,,,-99.99,373.0,HOBO +U30 +Weather +,2013-07-19 00:15:00,
2013-07-18 18:20:00,92.1,27.2,-100.00,NW,320,9.6,16.3,9,0.00,,,-99.99,363.0,HOBO +U30 +Weather +,2013-07-19 00:20:00,
2013-07-18 18:25:00,92.2,28.5,-100.00,NNW,348,10.7,15.9,10,0.00,,,-99.99,352.0,HOBO +U30 +Weather +,2013-07-19 00:25:00,
2013-07-18 18:30:00,92.4,29.0,-100.00,NNW,345,8.9,14.1,10,0.00,,,-99.99,341.0,HOBO +U30 +Weather +,2013-07-19 00:30:00,
2013-07-18 18:35:00,91.1,28.9,-100.00,NNW,337,10.1,19.2,10,0.00,,,-99.99,329.0,HOBO +U30 +Weather +,2013-07-19 00:35:00,
2013-07-18 18:49:00,92.1,24.7,-100.00,NNW,331,12.3,20.4,8,0.00,,,-99.99,316.0,HOBO +U30 +Weather +,2013-07-19 00:49:00,
2013-07-18 18:50:00,92.2,22.5,-100.00,NNW,337,11.9,17.4,8,0.00,,,-99.99,288.0,HOBO +U30 +Weather +,2013-07-19 00:50:00,
2013-07-18 18:55:00,92.3,22.6,-100.00,NNW,344,10.7,19.2,8,0.00,,,-99.99,274.0,HOBO +U30 +Weather +,2013-07-19 00:55:00,
2013-07-18 19:00:00,92.1,24.9,-100.00,NNW,343,13.4,20.8,8,0.00,,,-99.99,263.0,HOBO +U30 +Weather +,2013-07-19 01:00:00,
2013-07-18 19:05:00,92.5,25.0,-100.00,NNW,330,10.1,16.3,8,0.00,,,-99.99,252.0,HOBO +U30 +Weather +,2013-07-19 01:05:00,
2013-07-18 19:10:00,91.6,35.2,-100.00,NNW,330,13.0,24.2,13,0.00,,,-99.99,239.0,HOBO +U30 +Weather +,2013-07-19 01:10:00,
2013-07-18 19:15:00,90.5,42.2,-100.00,NNE,14,13.0,19.2,18,0.00,,,-99.99,222.0,HOBO +U30 +Weather +,2013-07-19 01:15:00,
2013-07-18 19:20:00,89.5,42.5,-100.00,NNE,28,13.4,19.7,19,0.00,,,-99.99,209.0,HOBO +U30 +Weather +,2013-07-19 01:20:00,
2013-07-18 19:25:00,90.0,43.6,-100.00,NNE,29,11.2,19.2,20,0.00,,,-99.99,206.0,HOBO +U30 +Weather +,2013-07-19 01:25:00,
2013-07-18 19:30:00,89.1,43.4,-100.00,NNE,20,12.3,17.0,20,0.00,,,-99.99,191.0,HOBO +U30 +Weather +,2013-07-19 01:30:00,
2013-07-18 19:35:00,89.2,42.9,-100.00,NNE,22,11.2,17.0,20,0.00,,,-99.99,182.0,HOBO +U30 +Weather +,2013-07-19 01:35:00,
2013-07-18 19:47:00,89.0,42.7,-100.00,NNE,24,11.2,18.1,19,0.00,,,-99.99,162.0,HOBO +U30 +Weather +,2013-07-19 01:47:00,
2013-07-18 19:50:00,88.1,42.9,-100.00,NNE,32,12.3,18.1,20,0.00,,,-99.99,139.0,HOBO +U30 +Weather +,2013-07-19 01:50:00,
2013-07-18 19:55:00,87.8,43.5,-100.00,NNE,29,13.0,17.4,21,0.00,,,-99.99,128.0,HOBO +U30 +Weather +,2013-07-19 01:55:00,
2013-07-18 20:00:00,87.6,43.5,-100.00,NNE,29,10.7,15.2,21,0.00,,,-99.99,114.0,HOBO +U30 +Weather +,2013-07-19 02:00:00,
2013-07-18 20:05:00,87.6,43.1,-100.00,NNE,24,9.6,13.0,21,0.00,,,-99.99,99.0,HOBO +U30 +Weather +,2013-07-19 02:05:00,
2013-07-18 20:10:00,87.5,43.1,-100.00,NNE,28,8.9,13.0,21,0.00,,,-99.99,84.0,HOBO +U30 +Weather +,2013-07-19 02:10:00,
2013-07-18 20:15:00,87.3,43.2,-100.00,NNE,29,8.5,11.9,21,0.00,,,-99.99,72.0,HOBO +U30 +Weather +,2013-07-19 02:15:00,
2013-07-18 20:20:00,87.0,43.7,-100.00,NE,35,7.4,13.0,22,0.00,,,-99.99,59.0,HOBO +U30 +Weather +,2013-07-19 02:20:00,
2013-07-18 20:25:00,86.0,44.7,-100.00,NE,41,8.5,13.0,23,0.00,,,-99.99,48.0,HOBO +U30 +Weather +,2013-07-19 02:25:00,
2013-07-18 20:30:00,85.7,44.7,-100.00,NNE,32,7.8,11.9,23,0.00,,,-99.99,38.0,HOBO +U30 +Weather +,2013-07-19 02:30:00,
2013-07-18 20:35:00,85.4,44.6,-100.00,NNE,29,8.5,13.4,24,0.00,,,-99.99,29.0,HOBO +U30 +Weather +,2013-07-19 02:35:00,
2013-07-18 20:45:00,84.3,45.2,-100.00,NE,34,8.9,13.4,25,0.00,,,-99.99,11.0,HOBO +U30 +Weather +,2013-07-19 02:45:00,
2013-07-18 20:46:00,84.9,44.7,-100.00,NE,38,8.9,13.4,24,0.00,,,-99.99,21.0,HOBO +U30 +Weather +,2013-07-19 02:46:00,
2013-07-18 20:50:00,84.1,44.5,-100.00,NNE,31,6.7,11.9,25,0.00,,,-99.99,8.0,HOBO +U30 +Weather +,2013-07-19 02:50:00,
2013-07-18 20:55:00,84.0,44.5,-100.00,NNE,24,5.6,9.6,25,0.00,,,-99.99,6.0,HOBO +U30 +Weather +,2013-07-19 02:55:00,
2013-07-18 21:00:00,83.8,44.4,-100.00,NNE,25,6.3,11.9,25,0.00,,,-99.99,3.0,HOBO +U30 +Weather +,2013-07-19 03:00:00,
2013-07-18 21:05:00,83.6,44.4,-100.00,NNE,22,7.8,13.0,25,0.00,,,-99.99,2.0,HOBO +U30 +Weather +,2013-07-19 03:05:00,
2013-07-18 21:10:00,82.8,45.3,-100.00,NE,44,6.3,9.6,26,0.00,,,-99.99,1.0,HOBO +U30 +Weather +,2013-07-19 03:10:00,
2013-07-18 21:15:00,82.5,45.7,-100.00,NE,35,6.7,9.6,27,0.00,,,-99.99,1.0,HOBO +U30 +Weather +,2013-07-19 03:15:00,
2013-07-18 21:20:00,82.3,45.5,-100.00,NNE,27,6.3,8.5,27,0.00,,,-99.99,1.0,HOBO +U30 +Weather +,2013-07-19 03:20:00,
2013-07-18 21:25:00,82.1,45.2,-100.00,NNE,22,5.1,7.4,27,0.00,,,-99.99,1.0,HOBO +U30 +Weather +,2013-07-19 03:25:00,
2013-07-18 21:30:00,82.1,45.1,-100.00,NNE,31,5.6,8.5,27,0.00,,,-99.99,1.0,HOBO +U30 +Weather +,2013-07-19 03:30:00,
2013-07-18 21:44:00,81.7,45.5,-100.00,NE,38,5.6,8.5,28,0.00,,,-99.99,1.0,HOBO +U30 +Weather +,2013-07-19 03:44:00,
2013-07-18 21:45:00,81.2,45.2,-100.00,NNE,18,5.6,7.8,28,0.00,,,-99.99,1.0,HOBO +U30 +Weather +,2013-07-19 03:45:00,
2013-07-18 21:50:00,81.0,45.0,-100.00,NNE,17,6.3,8.5,28,0.00,,,-99.99,1.0,HOBO +U30 +Weather +,2013-07-19 03:50:00,
2013-07-18 21:55:00,80.8,44.8,-100.00,NNE,15,5.6,8.5,28,0.00,,,-99.99,1.0,HOBO +U30 +Weather +,2013-07-19 03:55:00,
2013-07-18 22:00:00,80.6,44.8,-100.00,North,11,5.6,7.8,28,0.00,,,-99.99,1.0,HOBO +U30 +Weather +,2013-07-19 04:00:00,
2013-07-18 22:05:00,80.7,44.5,-100.00,NNE,14,5.6,7.4,27,0.00,,,-99.99,1.0,HOBO +U30 +Weather +,2013-07-19 04:05:00,
2013-07-18 22:10:00,80.5,45.5,-100.00,NNE,25,3.4,5.6,29,0.00,,,-99.99,1.0,HOBO +U30 +Weather +,2013-07-19 04:10:00,
2013-07-18 22:15:00,78.8,45.5,-100.00,ENE,67,6.3,7.8,30,0.00,,,-99.99,1.0,HOBO +U30 +Weather +,2013-07-19 04:15:00,
2013-07-18 22:20:00,79.2,44.6,-100.00,NE,37,5.6,7.8,29,0.00,,,-99.99,1.0,HOBO +U30 +Weather +,2013-07-19 04:20:00,
2013-07-18 22:25:00,79.0,44.6,-100.00,NNE,22,4.5,5.6,29,0.00,,,-99.99,1.0,HOBO +U30 +Weather +,2013-07-19 04:25:00,
2013-07-18 22:30:00,78.9,44.6,-100.00,North,8,4.5,7.4,29,0.00,,,-99.99,1.0,HOBO +U30 +Weather +,2013-07-19 04:30:00,
2013-07-18 22:42:00,78.6,45.0,-100.00,NNE,15,2.2,4.5,30,0.00,,,-99.99,1.0,HOBO +U30 +Weather +,2013-07-19 04:42:00,
2013-07-18 22:45:00,78.4,45.0,-100.00,NE,44,4.0,5.6,30,0.00,,,-99.99,1.0,HOBO +U30 +Weather +,2013-07-19 04:45:00,
2013-07-18 22:50:00,77.8,44.7,-100.00,NE,46,4.0,6.3,30,0.00,,,-99.99,1.0,HOBO +U30 +Weather +,2013-07-19 04:50:00,
2013-07-18 22:55:00,77.6,43.7,-100.00,NNE,24,3.4,5.1,29,0.00,,,-99.99,1.0,HOBO +U30 +Weather +,2013-07-19 04:55:00,
2013-07-18 23:00:00,77.8,44.5,-100.00,NNE,13,2.9,4.0,30,0.00,,,-99.99,1.0,HOBO +U30 +Weather +,2013-07-19 05:00:00,
2013-07-18 23:05:00,77.6,44.7,-100.00,NNE,18,2.2,3.4,31,0.00,,,-99.99,1.0,HOBO +U30 +Weather +,2013-07-19 05:05:00,
2013-07-18 23:10:00,77.4,44.5,-100.00,NNE,21,1.8,3.4,31,0.00,,,-99.99,1.0,HOBO +U30 +Weather +,2013-07-19 05:10:00,
2013-07-18 23:15:00,76.7,44.7,-100.00,NNE,21,1.1,2.2,32,0.00,,,-99.99,1.0,HOBO +U30 +Weather +,2013-07-19 05:15:00,
2013-07-18 23:20:00,76.7,43.9,-100.00,NNE,21,0.7,2.2,31,0.00,,,-99.99,1.0,HOBO +U30 +Weather +,2013-07-19 05:20:00,
2013-07-18 23:25:00,76.6,43.6,-100.00,NNE,21,1.8,4.5,30,0.00,,,-99.99,1.0,HOBO +U30 +Weather +,2013-07-19 05:25:00,
2013-07-18 23:30:00,76.4,44.1,-100.00,NNE,15,3.4,5.1,31,0.00,,,-99.99,1.0,HOBO +U30 +Weather +,2013-07-19 05:30:00,
2013-07-18 23:35:00,76.2,45.5,-100.00,North,8,3.4,5.1,33,0.00,,,-99.99,1.0,HOBO +U30 +Weather +,2013-07-19 05:35:00,
2013-07-18 23:40:00,76.0,46.0,-100.00,NNE,14,2.9,4.5,34,0.00,,,-99.99,1.0,HOBO +U30 +Weather +,2013-07-19 05:40:00,
2013-07-18 23:45:00,75.0,45.9,-100.00,North,7,5.6,9.6,35,0.00,,,-99.99,1.0,HOBO +U30 +Weather +,2013-07-19 05:45:00,
2013-07-18 23:50:00,75.4,44.8,-100.00,NNE,22,6.3,11.2,33,0.00,,,-99.99,1.0,HOBO +U30 +Weather +,2013-07-19 05:50:00,
2013-07-18 23:55:00,75.9,44.5,-100.00,NNE,17,7.8,13.4,32,0.00,,,-99.99,1.0,HOBO +U30 +Weather +,2013-07-19 05:55:00,